createdAt,value
2018-07-26T00:00:43.369Z,7.60
2018-07-26T00:03:18.744Z,7.93
2018-07-26T00:05:54.255Z,9.90
2018-07-26T00:08:29.628Z,7.80
2018-07-26T00:11:07.063Z,8.63
2018-07-26T00:13:42.688Z,8.77
2018-07-26T00:16:18.333Z,8.17
2018-07-26T00:18:54.320Z,8.10
2018-07-26T00:21:29.853Z,8.03
2018-07-26T00:24:05.520Z,7.47
2018-07-26T00:26:40.958Z,12.53
2018-07-26T00:29:16.717Z,8.43
2018-07-26T00:31:52.192Z,10.40
2018-07-26T00:34:27.915Z,9.73
2018-07-26T00:37:03.364Z,10.53
2018-07-26T00:39:39.294Z,13.53
2018-07-26T00:42:15.076Z,11.73
2018-07-26T00:44:50.740Z,10.47
2018-07-26T00:47:26.296Z,8.77
2018-07-26T00:50:01.874Z,9.07
2018-07-26T00:52:37.184Z,8.03
2018-07-26T00:55:12.800Z,7.67
2018-07-26T00:57:48.124Z,8.50
2018-07-26T01:00:23.566Z,7.63
2018-07-26T01:02:59.000Z,8.40
2018-07-26T01:05:34.752Z,9.30
2018-07-26T01:08:10.454Z,9.83
2018-07-26T01:10:46.081Z,8.40
2018-07-26T01:13:21.559Z,8.33
2018-07-26T01:15:57.249Z,7.70
2018-07-26T01:18:32.565Z,9.60
2018-07-26T01:21:08.344Z,10.70
2018-07-26T01:23:43.706Z,8.90
2018-07-26T01:26:19.087Z,10.57
2018-07-26T01:28:54.553Z,8.47
2018-07-26T01:31:30.121Z,8.87
2018-07-26T01:34:05.320Z,8.50
2018-07-26T01:36:40.812Z,10.90
2018-07-26T01:39:16.214Z,10.37
2018-07-26T01:41:52.208Z,9.27
2018-07-26T01:44:27.501Z,9.67
2018-07-26T01:47:02.888Z,9.07
2018-07-26T01:49:38.073Z,8.90
2018-07-26T01:52:13.689Z,9.10
2018-07-26T01:54:49.176Z,10.13
2018-07-26T01:57:24.680Z,9.10
2018-07-26T02:00:00.026Z,9.73
2018-07-26T02:02:35.367Z,9.70
2018-07-26T02:05:10.532Z,10.50
2018-07-26T02:07:46.040Z,9.20
2018-07-26T02:10:21.329Z,10.00
2018-07-26T02:12:57.466Z,9.47
2018-07-26T02:15:32.604Z,9.77
2018-07-26T02:18:08.324Z,8.53
2018-07-26T02:20:43.645Z,9.70
2018-07-26T02:23:19.508Z,9.30
2018-07-26T02:25:55.185Z,9.43
2018-07-26T02:28:30.839Z,9.10
2018-07-26T02:31:06.365Z,9.50
2018-07-26T02:33:41.937Z,8.80
2018-07-26T02:36:17.264Z,9.40
2018-07-26T02:38:52.721Z,9.40
2018-07-26T02:41:28.064Z,9.97
2018-07-26T02:44:03.569Z,8.83
2018-07-26T02:46:38.905Z,9.20
2018-07-26T02:49:14.515Z,9.27
2018-07-26T02:51:49.665Z,9.63
2018-07-26T02:54:25.096Z,9.43
2018-07-26T02:57:00.297Z,10.70
2018-07-26T02:59:35.876Z,9.73
2018-07-26T03:02:11.112Z,9.60
2018-07-26T03:04:46.637Z,9.90
2018-07-26T03:07:22.030Z,9.50
2018-07-26T03:09:57.444Z,9.40
2018-07-26T03:12:31.919Z,8.80
2018-07-26T03:15:08.337Z,9.87
2018-07-26T03:17:43.715Z,9.27
2018-07-26T03:20:19.142Z,9.13
2018-07-26T03:22:54.457Z,8.70
2018-07-26T03:25:30.125Z,8.63
2018-07-26T03:28:05.542Z,8.33
2018-07-26T03:30:41.112Z,9.10
2018-07-26T03:33:16.549Z,9.20
2018-07-26T03:35:52.325Z,10.07
2018-07-26T03:38:27.556Z,7.97
2018-07-26T03:41:03.149Z,9.63
2018-07-26T03:43:38.615Z,9.43
2018-07-26T03:46:13.992Z,8.90
2018-07-26T03:48:49.436Z,9.47
2018-07-26T03:51:24.920Z,9.37
2018-07-26T03:54:00.329Z,8.90
2018-07-26T03:56:35.977Z,9.87
2018-07-26T03:59:11.450Z,9.27
2018-07-26T04:01:47.072Z,9.50
2018-07-26T04:04:22.342Z,9.13
2018-07-26T04:06:58.056Z,8.50
2018-07-26T04:09:33.307Z,9.70
2018-07-26T04:12:08.952Z,8.43
2018-07-26T04:14:44.265Z,9.80
2018-07-26T04:17:19.751Z,9.27
2018-07-26T04:19:55.063Z,8.63
2018-07-26T04:22:30.648Z,8.43
2018-07-26T04:25:05.852Z,8.27
2018-07-26T04:27:41.320Z,7.90
2018-07-26T04:30:16.780Z,8.07
2018-07-26T04:32:52.420Z,9.27
2018-07-26T04:35:27.952Z,9.20
2018-07-26T04:38:03.609Z,9.40
2018-07-26T04:40:39.090Z,8.60
2018-07-26T04:43:14.420Z,8.20
2018-07-26T04:45:49.876Z,8.20
2018-07-26T04:48:25.497Z,8.57
2018-07-26T04:51:00.984Z,7.90
2018-07-26T04:53:36.789Z,8.50
2018-07-26T04:56:12.187Z,8.20
2018-07-26T04:58:47.685Z,8.47
2018-07-26T05:01:22.920Z,7.90
2018-07-26T05:03:58.368Z,8.07
2018-07-26T05:06:33.684Z,8.23
2018-07-26T05:09:10.907Z,7.47
2018-07-26T05:11:46.192Z,7.30
2018-07-26T05:14:21.785Z,7.60
2018-07-26T05:22:06.812Z,6.97
2018-07-26T05:24:42.336Z,6.57
2018-07-26T05:37:37.141Z,5.60
2018-07-26T05:40:12.765Z,4.70
2018-07-26T05:42:48.115Z,4.90
2018-07-26T05:45:23.752Z,4.50
2018-07-26T05:47:59.033Z,4.57
2018-07-26T05:50:34.546Z,4.70
2018-07-26T05:53:09.859Z,4.50
2018-07-26T05:55:45.435Z,4.20
2018-07-26T05:58:20.776Z,4.70
2018-07-26T06:00:56.328Z,4.50
2018-07-26T06:03:31.656Z,4.33
2018-07-26T06:06:07.245Z,4.03
2018-07-26T06:08:42.486Z,4.40
2018-07-26T06:11:18.005Z,4.37
2018-07-26T06:13:53.424Z,4.05
2018-07-26T06:16:29.052Z,3.60
2018-07-26T06:19:04.485Z,3.73
2018-07-26T06:21:40.697Z,3.47
2018-07-26T06:24:16.076Z,3.57
2018-07-26T06:26:51.702Z,3.47
2018-07-26T06:29:27.469Z,3.37
2018-07-26T06:32:03.114Z,3.67
2018-07-26T06:34:38.578Z,3.50
2018-07-26T06:37:14.402Z,3.00
2018-07-26T06:39:49.762Z,3.20
2018-07-26T06:42:25.188Z,3.80
2018-07-26T06:45:00.649Z,3.00
2018-07-26T06:47:36.178Z,3.00
2018-07-26T06:50:12.744Z,3.40
2018-07-26T06:52:48.405Z,2.63
2018-07-26T06:55:23.580Z,2.87
2018-07-26T06:57:59.192Z,2.73
2018-07-26T07:00:34.502Z,2.53
2018-07-26T07:03:10.072Z,2.67
2018-07-26T07:05:45.429Z,2.40
2018-07-26T07:08:21.173Z,2.60
2018-07-26T07:10:56.520Z,2.50
2018-07-26T07:13:32.507Z,2.53
2018-07-26T07:16:07.919Z,3.27
2018-07-26T07:18:43.597Z,2.50
2018-07-26T07:21:19.012Z,2.70
2018-07-26T07:23:54.705Z,2.60
2018-07-26T07:26:30.204Z,2.87
2018-07-26T07:29:05.965Z,2.03
2018-07-26T07:31:41.200Z,2.30
2018-07-26T07:34:16.778Z,2.40
2018-07-26T07:36:51.977Z,2.40
2018-07-26T07:39:27.519Z,2.37
2018-07-26T07:42:02.961Z,2.37
2018-07-26T07:44:38.436Z,2.30
2018-07-26T07:47:13.893Z,2.10
2018-07-26T07:49:49.216Z,2.03
2018-07-26T07:52:24.717Z,1.97
2018-07-26T07:55:00.724Z,1.90
2018-07-26T07:57:36.159Z,2.00
2018-07-26T08:00:11.720Z,2.30
2018-07-26T08:02:46.897Z,2.27
2018-07-26T08:05:22.528Z,2.17
2018-07-26T08:07:57.461Z,2.10
2018-07-26T08:10:33.095Z,3.00
2018-07-26T08:13:08.324Z,2.43
2018-07-26T08:15:43.885Z,2.30
2018-07-26T08:18:19.388Z,2.70
2018-07-26T08:20:54.767Z,2.50
2018-07-26T08:23:30.138Z,3.20
2018-07-26T08:26:05.756Z,2.70
2018-07-26T08:28:41.206Z,2.90
2018-07-26T08:31:17.060Z,2.73
2018-07-26T08:33:52.497Z,2.77
2018-07-26T08:36:27.948Z,2.97
2018-07-26T08:39:03.457Z,3.10
2018-07-26T08:41:38.900Z,2.60
2018-07-26T08:44:14.204Z,3.00
2018-07-26T08:46:49.736Z,3.40
2018-07-26T08:49:25.145Z,2.97
2018-07-26T08:52:00.737Z,3.27
2018-07-26T08:54:36.060Z,2.80
2018-07-26T08:57:11.705Z,3.80
2018-07-26T08:59:47.202Z,3.60
2018-07-26T09:02:22.712Z,4.03
2018-07-26T09:04:58.048Z,3.17
2018-07-26T09:07:33.893Z,3.30
2018-07-26T09:10:09.358Z,3.97
2018-07-26T09:12:44.901Z,2.80
2018-07-26T09:15:20.604Z,2.90
2018-07-26T09:17:56.040Z,3.40
2018-07-26T09:20:31.431Z,2.90
2018-07-26T09:23:06.788Z,3.40
2018-07-26T09:25:42.112Z,3.60
2018-07-26T09:28:17.692Z,4.00
2018-07-26T09:30:53.035Z,4.53
2018-07-26T09:33:28.568Z,2.87
2018-07-26T09:36:04.032Z,4.33
2018-07-26T09:38:39.473Z,3.37
2018-07-26T09:41:15.399Z,3.20
2018-07-26T09:43:50.969Z,3.20
2018-07-26T09:46:26.304Z,3.40
2018-07-26T09:49:01.857Z,3.30
2018-07-26T09:51:37.585Z,3.10
2018-07-26T09:54:12.984Z,3.17
2018-07-26T09:56:48.308Z,3.23
2018-07-26T09:59:23.956Z,3.47
2018-07-26T10:01:59.304Z,3.53
2018-07-26T10:04:34.828Z,3.23
2018-07-26T10:07:10.152Z,3.67
2018-07-26T10:09:46.210Z,3.73
2018-07-26T10:12:21.378Z,3.57
2018-07-26T10:14:57.128Z,3.47
2018-07-26T10:17:32.479Z,3.10
2018-07-26T10:20:08.262Z,3.40
2018-07-26T10:22:43.613Z,3.20
2018-07-26T10:25:19.851Z,3.50
2018-07-26T10:27:55.367Z,3.20
2018-07-26T10:30:31.131Z,3.40
2018-07-26T10:33:06.970Z,4.60
2018-07-26T10:35:42.617Z,3.80
2018-07-26T10:38:18.014Z,3.53
2018-07-26T10:40:53.625Z,3.67
2018-07-26T10:43:28.821Z,3.33
2018-07-26T10:46:04.312Z,3.60
2018-07-26T10:48:39.628Z,2.77
2018-07-26T10:51:15.210Z,3.57
2018-07-26T10:53:50.512Z,3.60
2018-07-26T10:56:25.995Z,3.77
2018-07-26T10:59:01.485Z,4.87
2018-07-26T11:01:37.085Z,4.20
2018-07-26T11:04:12.603Z,3.43
2018-07-26T11:06:48.292Z,4.03
2018-07-26T11:09:23.516Z,3.43
2018-07-26T11:11:59.141Z,3.40
2018-07-26T11:14:34.550Z,4.43
2018-07-26T11:17:10.170Z,3.93
2018-07-26T11:19:46.052Z,3.80
2018-07-26T11:22:21.564Z,3.60
2018-07-26T11:24:57.024Z,4.77
2018-07-26T11:27:32.660Z,3.43
2018-07-26T11:30:08.332Z,3.90
2018-07-26T11:32:43.968Z,3.83
2018-07-26T11:35:19.288Z,4.00
2018-07-26T11:37:54.864Z,3.83
2018-07-26T11:40:30.048Z,3.23
2018-07-26T11:43:05.744Z,3.73
2018-07-26T11:45:41.117Z,4.77
2018-07-26T11:48:16.593Z,3.87
2018-07-26T11:50:51.801Z,3.80
2018-07-26T11:53:27.321Z,3.43
2018-07-26T11:56:02.783Z,3.40
2018-07-26T11:58:38.417Z,4.00
2018-07-26T12:01:13.685Z,3.40
2018-07-26T12:03:49.106Z,3.80
2018-07-26T12:06:24.553Z,3.93
2018-07-26T12:09:00.038Z,3.60
2018-07-26T12:11:35.312Z,4.20
2018-07-26T12:14:11.660Z,3.97
2018-07-26T12:16:46.984Z,3.80
2018-07-26T12:19:22.397Z,5.83
2018-07-26T12:21:57.908Z,3.90
2018-07-26T12:24:33.373Z,3.83
2018-07-26T12:27:08.686Z,3.00
2018-07-26T12:29:44.285Z,3.17
2018-07-26T12:32:19.589Z,3.67
2018-07-26T12:34:55.373Z,3.50
2018-07-26T12:37:30.844Z,3.50
2018-07-26T12:40:06.771Z,3.20
2018-07-26T12:42:42.117Z,3.80
2018-07-26T12:45:17.290Z,3.83
2018-07-26T12:47:52.642Z,4.87
2018-07-26T12:50:28.140Z,4.63
2018-07-26T12:53:03.675Z,3.90
2018-07-26T12:55:39.126Z,4.00
2018-07-26T12:58:14.536Z,4.50
2018-07-26T13:00:50.026Z,5.60
2018-07-26T13:03:25.292Z,3.70
2018-07-26T13:06:00.797Z,3.70
2018-07-26T13:08:36.171Z,4.07
2018-07-26T13:11:11.814Z,3.50
2018-07-26T13:13:47.540Z,4.70
2018-07-26T13:16:23.305Z,3.90
2018-07-26T13:18:58.598Z,3.87
2018-07-26T13:21:34.201Z,4.00
2018-07-26T13:24:09.623Z,4.27
2018-07-26T13:26:45.340Z,3.70
2018-07-26T13:29:20.812Z,4.00
2018-07-26T13:31:56.196Z,4.13
2018-07-26T13:34:31.359Z,4.20
2018-07-26T13:37:06.872Z,3.67
2018-07-26T13:39:42.386Z,3.93
2018-07-26T13:42:17.964Z,4.23
2018-07-26T13:44:53.112Z,4.50
2018-07-26T13:47:28.668Z,4.40
2018-07-26T13:50:03.984Z,4.60
2018-07-26T13:52:39.466Z,4.60
2018-07-26T13:55:14.941Z,4.27
2018-07-26T13:57:50.393Z,4.30
2018-07-26T14:00:25.602Z,4.37
2018-07-26T14:03:01.129Z,4.90
2018-07-26T14:05:36.538Z,4.27
2018-07-26T14:08:12.336Z,4.20
2018-07-26T14:10:48.103Z,4.60
2018-07-26T14:13:23.617Z,5.00
2018-07-26T14:15:59.125Z,4.80
2018-07-26T14:18:34.613Z,4.87
2018-07-26T14:21:09.997Z,4.60
2018-07-26T14:23:45.396Z,4.83
2018-07-26T14:26:20.632Z,4.53
2018-07-26T14:28:56.192Z,4.57
2018-07-26T14:31:31.745Z,4.73
2018-07-26T14:34:07.312Z,4.80
2018-07-26T14:36:42.708Z,4.97
2018-07-26T14:39:18.372Z,5.00
2018-07-26T14:41:53.824Z,4.80
2018-07-26T14:44:29.305Z,5.13
2018-07-26T14:47:04.791Z,4.33
2018-07-26T14:49:40.255Z,5.00
2018-07-26T14:52:15.712Z,4.60
2018-07-26T14:54:51.253Z,4.73
2018-07-26T14:57:26.729Z,4.93
2018-07-26T15:00:02.249Z,5.50
2018-07-26T15:02:37.540Z,5.80
2018-07-26T15:05:13.133Z,5.13
2018-07-26T15:07:48.314Z,5.30
2018-07-26T15:10:24.125Z,6.17
2018-07-26T15:12:59.653Z,5.70
2018-07-26T15:15:35.121Z,6.60
2018-07-26T15:18:10.353Z,6.37
2018-07-26T15:20:45.926Z,5.70
2018-07-26T15:23:21.424Z,5.73
2018-07-26T15:25:57.017Z,5.83
2018-07-26T15:28:32.192Z,5.33
2018-07-26T15:31:08.000Z,6.03
2018-07-26T15:33:43.296Z,5.30
2018-07-26T15:36:18.909Z,7.27
2018-07-26T15:38:54.243Z,5.43
2018-07-26T15:41:29.874Z,5.33
2018-07-26T15:44:04.984Z,5.40
2018-07-26T15:46:40.671Z,5.43
2018-07-26T15:49:16.089Z,5.73
2018-07-26T15:51:51.558Z,6.97
2018-07-26T15:54:26.794Z,6.60
2018-07-26T15:57:02.374Z,6.10
2018-07-26T15:59:37.696Z,5.87
2018-07-26T16:02:13.167Z,6.03
2018-07-26T16:04:48.575Z,6.40
2018-07-26T16:07:24.062Z,6.43
2018-07-26T16:09:59.337Z,6.17
2018-07-26T16:12:35.017Z,6.47
2018-07-26T16:15:11.156Z,5.93
2018-07-26T16:17:46.902Z,5.30
2018-07-26T16:20:22.199Z,6.50
2018-07-26T16:22:57.824Z,5.67
2018-07-26T16:25:33.268Z,6.07
2018-07-26T16:28:08.922Z,6.10
2018-07-26T16:30:44.259Z,5.97
2018-07-26T16:33:19.716Z,7.30
2018-07-26T16:35:55.119Z,5.60
2018-07-26T16:38:30.705Z,6.70
2018-07-26T16:41:06.100Z,6.10
2018-07-26T16:43:41.295Z,6.00
2018-07-26T16:46:16.597Z,6.23
2018-07-26T16:48:52.173Z,6.30
2018-07-26T16:51:28.127Z,6.33
2018-07-26T16:54:03.687Z,6.37
2018-07-26T16:56:39.156Z,6.70
2018-07-26T16:59:14.748Z,6.40
2018-07-26T17:01:49.992Z,6.50
2018-07-26T17:04:25.672Z,5.47
2018-07-26T17:07:00.869Z,6.43
2018-07-26T17:09:36.456Z,6.57
2018-07-26T17:12:11.690Z,5.90
2018-07-26T17:14:47.037Z,6.57
2018-07-26T17:17:22.484Z,7.50
2018-07-26T17:19:58.028Z,6.73
2018-07-26T17:22:33.357Z,6.50
2018-07-26T17:25:08.931Z,6.27
2018-07-26T17:27:44.320Z,6.00
2018-07-26T17:30:20.021Z,6.67
2018-07-26T17:32:55.204Z,7.07
2018-07-26T17:35:30.717Z,7.70
2018-07-26T17:38:06.140Z,6.30
2018-07-26T17:40:41.741Z,7.27
2018-07-26T17:43:17.030Z,6.50
2018-07-26T17:45:52.496Z,6.60
2018-07-26T17:48:28.005Z,6.47
2018-07-26T17:51:03.737Z,6.60
2018-07-26T17:53:39.041Z,6.20
2018-07-26T17:56:14.480Z,6.90
2018-07-26T17:58:49.856Z,7.23
2018-07-26T18:01:25.273Z,5.80
2018-07-26T18:04:00.713Z,5.80
2018-07-26T18:06:36.461Z,6.70
2018-07-26T18:09:11.676Z,6.40
2018-07-26T18:11:47.385Z,5.43
2018-07-26T18:14:22.684Z,7.17
2018-07-26T18:16:58.289Z,6.23
2018-07-26T18:19:33.621Z,6.00
2018-07-26T18:22:09.133Z,5.87
2018-07-26T18:24:44.371Z,6.40
2018-07-26T18:27:19.917Z,6.30
2018-07-26T18:29:55.262Z,7.10
2018-07-26T18:32:31.008Z,6.33
2018-07-26T18:35:10.386Z,6.07
2018-07-26T18:37:46.101Z,6.10
2018-07-26T18:40:21.489Z,6.63
2018-07-26T18:42:57.096Z,6.80
2018-07-26T18:45:32.389Z,7.23
2018-07-26T18:48:07.879Z,6.90
2018-07-26T18:50:43.386Z,8.07
2018-07-26T18:53:19.109Z,5.87
2018-07-26T18:55:54.557Z,6.43
2018-07-26T18:58:30.177Z,6.80
2018-07-26T19:01:05.672Z,6.43
2018-07-26T19:03:41.269Z,7.13
2018-07-26T19:06:16.568Z,6.73
2018-07-26T19:08:52.170Z,6.93
2018-07-26T19:11:27.612Z,6.83
2018-07-26T19:14:03.256Z,6.60
2018-07-26T19:16:38.684Z,6.70
2018-07-26T19:19:14.358Z,6.40
2018-07-26T19:21:49.824Z,6.93
2018-07-26T19:24:25.486Z,6.93
2018-07-26T19:27:00.897Z,6.47
2018-07-26T19:29:36.306Z,6.90
2018-07-26T19:32:11.720Z,6.40
2018-07-26T19:34:47.320Z,6.63
2018-07-26T19:37:22.700Z,6.57
2018-07-26T19:39:58.099Z,6.90
2018-07-26T19:42:33.555Z,7.00
2018-07-26T19:45:10.349Z,6.57
2018-07-26T19:47:45.748Z,6.60
2018-07-26T19:50:21.224Z,6.80
2018-07-26T19:52:56.611Z,7.00
2018-07-26T19:55:32.349Z,7.50
2018-07-26T19:58:07.585Z,6.80
2018-07-26T20:00:43.113Z,6.53
2018-07-26T20:03:18.358Z,10.63
2018-07-26T20:05:54.009Z,6.97
2018-07-26T20:08:29.506Z,6.30
2018-07-26T20:11:05.430Z,6.40
2018-07-26T20:13:40.828Z,6.20
2018-07-26T20:16:16.406Z,6.73
2018-07-26T20:18:51.769Z,7.13
2018-07-26T20:21:27.191Z,6.70
2018-07-26T20:24:02.702Z,6.63
2018-07-26T20:26:38.396Z,6.37
2018-07-26T20:29:13.973Z,6.57
2018-07-26T20:31:49.700Z,6.60
2018-07-26T20:34:25.016Z,7.13
2018-07-26T20:37:00.580Z,7.90
2018-07-26T20:39:36.158Z,6.97
2018-07-26T20:42:12.188Z,7.23
2018-07-26T20:44:47.638Z,10.30
2018-07-26T20:47:23.073Z,8.50
2018-07-26T20:49:58.546Z,6.90
2018-07-26T20:52:34.073Z,7.13
2018-07-26T20:55:09.437Z,7.30
2018-07-26T20:57:45.360Z,7.30
2018-07-26T21:00:20.727Z,7.03
2018-07-26T21:02:56.569Z,8.10
2018-07-26T21:05:32.072Z,6.63
2018-07-26T21:08:07.464Z,7.00
2018-07-26T21:10:49.060Z,9.77
2018-07-26T21:13:24.394Z,7.77
2018-07-26T21:15:59.920Z,7.30
2018-07-26T21:18:35.385Z,7.87
2018-07-26T21:21:10.868Z,7.77
2018-07-26T21:23:46.264Z,7.40
2018-07-26T21:26:21.528Z,7.80
2018-07-26T21:28:57.472Z,7.73
2018-07-26T21:31:33.138Z,9.57
2018-07-26T21:34:08.949Z,7.10
2018-07-26T21:36:44.250Z,7.70
2018-07-26T21:39:19.864Z,7.73
2018-07-26T21:41:55.235Z,8.07
2018-07-26T21:44:30.989Z,8.30
2018-07-26T21:47:06.385Z,8.03
2018-07-26T21:49:41.952Z,8.10
2018-07-26T21:52:17.284Z,7.83
2018-07-26T21:54:52.845Z,7.70
2018-07-26T21:57:28.373Z,7.83
2018-07-26T22:00:03.942Z,8.97
2018-07-26T22:02:39.311Z,8.00
2018-07-26T22:05:14.633Z,7.80
2018-07-26T22:07:50.073Z,8.20
2018-07-26T22:10:25.614Z,8.17
2018-07-26T22:13:00.832Z,7.87
2018-07-26T22:15:36.412Z,8.50
2018-07-26T22:18:11.892Z,7.73
2018-07-26T22:20:47.930Z,7.83
2018-07-26T22:23:23.269Z,8.80
2018-07-26T22:25:59.001Z,8.23
2018-07-26T22:28:34.379Z,8.97
2018-07-26T22:31:10.397Z,9.83
2018-07-26T22:33:45.718Z,8.13
2018-07-26T22:36:21.093Z,11.37
2018-07-26T22:38:56.424Z,10.47
2018-07-26T22:41:31.988Z,10.03
2018-07-26T22:44:07.624Z,8.40
2018-07-26T22:46:43.288Z,8.13
2018-07-26T22:49:18.659Z,7.97
2018-07-26T22:51:54.381Z,8.03
2018-07-26T22:54:29.656Z,8.57
2018-07-26T22:57:05.369Z,8.33
2018-07-26T22:59:40.596Z,8.33
2018-07-26T23:02:16.182Z,7.70
2018-07-26T23:04:51.386Z,8.80
2018-07-26T23:07:27.162Z,9.43
2018-07-26T23:10:02.670Z,8.60
2018-07-26T23:12:38.457Z,8.23
2018-07-26T23:15:13.900Z,7.70
2018-07-26T23:17:49.328Z,8.30
2018-07-26T23:20:24.300Z,8.17
2018-07-26T23:22:59.824Z,8.90
2018-07-26T23:25:35.390Z,8.37
2018-07-26T23:28:10.925Z,7.87
2018-07-26T23:30:46.344Z,9.20
2018-07-26T23:33:21.923Z,8.67
2018-07-26T23:35:57.436Z,9.00
2018-07-26T23:38:33.114Z,9.07
2018-07-26T23:41:08.626Z,8.77
2018-07-26T23:43:44.204Z,9.50
2018-07-26T23:46:19.665Z,8.13
2018-07-26T23:48:55.204Z,7.70
2018-07-26T23:51:31.980Z,9.13
2018-07-26T23:54:07.633Z,10.37
2018-07-26T23:56:43.025Z,9.23
2018-07-26T23:59:18.544Z,8.57
